createdAt,value
2018-12-12T00:00:30.868Z,7.23
2018-12-12T00:03:03.000Z,5.53
2018-12-12T00:05:34.845Z,6.33
2018-12-12T00:08:04.736Z,5.83
2018-12-12T00:10:34.526Z,8.37
2018-12-12T00:13:04.432Z,5.93
2018-12-12T00:15:34.537Z,8.50
2018-12-12T00:18:04.672Z,6.40
2018-12-12T00:20:34.580Z,8.83
2018-12-12T00:23:04.384Z,6.37
2018-12-12T00:25:34.364Z,5.93
2018-12-12T00:28:04.161Z,7.00
2018-12-12T00:30:34.122Z,4.40
2018-12-12T00:33:03.704Z,5.90
2018-12-12T00:35:34.488Z,4.33
2018-12-12T00:38:04.503Z,10.40
2018-12-12T00:40:34.369Z,4.10
2018-12-12T00:43:04.437Z,5.03
2018-12-12T00:45:34.145Z,6.60
2018-12-12T00:48:03.808Z,5.97
2018-12-12T00:50:33.652Z,9.33
2018-12-12T00:53:03.460Z,6.63
2018-12-12T00:55:33.244Z,9.00
2018-12-12T00:58:02.882Z,5.33
2018-12-12T01:00:32.987Z,5.00
2018-12-12T01:03:02.682Z,6.57
2018-12-12T01:05:32.646Z,5.20
2018-12-12T01:08:02.453Z,5.57
2018-12-12T01:10:32.840Z,4.10
2018-12-12T01:13:02.693Z,3.90
2018-12-12T01:15:32.709Z,6.20
2018-12-12T01:18:02.476Z,4.50
2018-12-12T01:20:32.321Z,4.97
2018-12-12T01:23:02.148Z,3.80
2018-12-12T01:25:32.936Z,5.70
2018-12-12T01:28:02.802Z,7.60
2018-12-12T01:30:32.708Z,6.70
2018-12-12T01:33:03.048Z,6.97
2018-12-12T01:35:32.839Z,3.80
2018-12-12T01:38:02.779Z,4.57
2018-12-12T01:40:32.389Z,4.00
2018-12-12T01:43:02.285Z,5.73
2018-12-12T01:45:32.288Z,4.70
2018-12-12T01:48:02.216Z,7.03
2018-12-12T01:50:32.025Z,4.93
2018-12-12T01:53:02.763Z,6.20
2018-12-12T01:55:32.575Z,5.87
2018-12-12T01:58:02.476Z,4.73
2018-12-12T02:00:33.440Z,6.80
2018-12-12T02:03:03.241Z,4.70
2018-12-12T02:05:33.044Z,4.90
2018-12-12T02:08:03.068Z,3.63
2018-12-12T02:10:33.088Z,3.63
2018-12-12T02:13:14.084Z,4.13
2018-12-12T02:15:43.681Z,3.13
2018-12-12T02:18:13.689Z,2.90
2018-12-12T02:20:43.396Z,2.87
2018-12-12T02:23:13.208Z,3.70
2018-12-12T02:25:43.015Z,4.10
2018-12-12T02:28:12.732Z,4.17
2018-12-12T02:30:43.212Z,3.77
2018-12-12T02:33:12.968Z,5.47
2018-12-12T02:35:42.735Z,2.80
2018-12-12T02:38:12.379Z,3.23
2018-12-12T02:40:42.408Z,3.00
2018-12-12T02:43:12.181Z,5.00
2018-12-12T02:45:41.929Z,5.20
2018-12-12T02:48:11.953Z,4.10
2018-12-12T02:50:41.680Z,7.27
2018-12-12T02:53:11.676Z,3.10
2018-12-12T02:55:41.729Z,2.90
2018-12-12T02:58:11.376Z,6.70
2018-12-12T03:00:41.109Z,2.30
2018-12-12T03:03:11.029Z,5.00
2018-12-12T03:05:40.792Z,3.47
2018-12-12T03:08:10.639Z,2.97
2018-12-12T03:10:40.465Z,3.03
2018-12-12T03:13:10.477Z,5.63
2018-12-12T03:15:40.284Z,3.40
2018-12-12T03:18:10.191Z,3.30
2018-12-12T03:20:40.063Z,2.80
2018-12-12T03:23:09.723Z,3.10
2018-12-12T03:25:39.732Z,3.20
2018-12-12T03:28:09.619Z,4.93
2018-12-12T03:30:39.463Z,4.10
2018-12-12T03:33:09.492Z,2.27
2018-12-12T03:35:39.179Z,3.13
2018-12-12T03:38:08.999Z,2.70
2018-12-12T03:40:39.373Z,3.40
2018-12-12T03:43:09.248Z,3.97
2018-12-12T03:45:39.256Z,4.10
2018-12-12T03:48:09.176Z,4.10
2018-12-12T03:50:39.044Z,2.83
2018-12-12T03:53:09.005Z,5.60
2018-12-12T03:55:39.100Z,6.07
2018-12-12T03:58:09.913Z,4.20
2018-12-12T04:00:39.766Z,4.00
2018-12-12T04:03:09.621Z,2.90
2018-12-12T04:05:40.533Z,6.10
2018-12-12T04:08:10.254Z,4.17
2018-12-12T04:10:40.056Z,4.67
2018-12-12T04:13:09.852Z,4.07
2018-12-12T04:15:39.592Z,6.57
2018-12-12T04:18:09.386Z,3.87
2018-12-12T04:20:39.211Z,3.23
2018-12-12T04:23:08.908Z,3.13
2018-12-12T04:25:38.669Z,3.93
2018-12-12T04:28:08.428Z,3.90
2018-12-12T04:30:39.143Z,3.30
2018-12-12T04:33:08.977Z,6.20
2018-12-12T04:35:39.712Z,6.90
2018-12-12T04:38:09.372Z,6.43
2018-12-12T04:40:39.212Z,6.17
2018-12-12T04:43:09.037Z,4.73
2018-12-12T04:45:38.712Z,5.10
2018-12-12T04:48:08.461Z,4.70
2018-12-12T04:50:38.312Z,5.10
2018-12-12T04:53:08.085Z,6.27
2018-12-12T04:55:37.888Z,5.83
2018-12-12T04:58:07.715Z,5.97
2018-12-12T05:00:37.569Z,5.87
2018-12-12T05:03:07.580Z,4.83
2018-12-12T05:05:37.538Z,6.43
2018-12-12T05:08:07.325Z,7.30
2018-12-12T05:10:37.261Z,5.27
2018-12-12T05:13:07.108Z,5.37
2018-12-12T05:15:36.960Z,7.43
2018-12-12T05:18:06.725Z,8.10
2018-12-12T05:20:36.583Z,5.10
2018-12-12T05:23:06.544Z,6.20
2018-12-12T05:25:36.421Z,7.17
2018-12-12T05:28:06.159Z,5.43
2018-12-12T05:30:35.985Z,5.27
2018-12-12T05:33:05.849Z,5.10
2018-12-12T05:35:35.619Z,6.67
2018-12-12T05:38:05.528Z,7.00
2018-12-12T05:40:37.623Z,5.20
2018-12-12T05:43:07.485Z,7.80
2018-12-12T05:45:37.609Z,5.80
2018-12-12T05:48:07.291Z,7.67
2018-12-12T05:50:37.255Z,6.17
2018-12-12T05:53:07.014Z,4.80
2018-12-12T05:55:36.864Z,6.60
2018-12-12T05:58:06.732Z,7.27
2018-12-12T06:00:37.213Z,7.90
2018-12-12T06:12:10.849Z,6.30
2018-12-12T06:14:40.506Z,8.00
2018-12-12T06:17:10.344Z,5.10
2018-12-12T06:19:40.325Z,14.00
2018-12-12T06:22:10.029Z,6.30
2018-12-12T06:24:40.033Z,7.90
2018-12-12T06:27:09.603Z,10.27
2018-12-12T06:29:39.276Z,9.10
2018-12-12T06:32:09.033Z,10.07
2018-12-12T06:34:38.742Z,9.00
2018-12-12T06:37:08.508Z,10.03
2018-12-12T06:39:38.485Z,8.60
2018-12-12T06:42:08.268Z,9.23
2018-12-12T06:44:37.945Z,9.73
2018-12-12T06:47:08.812Z,8.63
2018-12-12T06:49:38.732Z,6.70
2018-12-12T06:52:08.304Z,10.93
2018-12-12T06:54:38.257Z,11.80
2018-12-12T06:57:07.864Z,9.07
2018-12-12T06:59:37.495Z,12.93
2018-12-12T07:02:07.388Z,10.17
2018-12-12T07:04:37.327Z,7.97
2018-12-12T07:07:07.933Z,10.07
2018-12-12T07:09:37.742Z,7.83
2018-12-12T07:12:07.461Z,9.73
2018-12-12T07:14:37.100Z,9.53
2018-12-12T07:17:06.964Z,8.20
2018-12-12T07:19:36.832Z,9.60
2018-12-12T07:22:06.577Z,8.57
2018-12-12T07:24:36.216Z,8.93
2018-12-12T07:27:06.220Z,8.23
2018-12-12T07:29:37.132Z,9.80
2018-12-12T07:32:07.223Z,9.77
2018-12-12T07:34:36.862Z,8.40
2018-12-12T07:37:06.679Z,8.00
2018-12-12T07:39:36.612Z,10.70
2018-12-12T07:42:06.302Z,9.73
2018-12-12T07:44:53.670Z,7.33
2018-12-12T07:47:25.445Z,7.30
2018-12-12T07:49:57.378Z,11.83
2018-12-12T07:52:48.657Z,14.23
2018-12-12T07:55:19.224Z,8.03
2018-12-12T07:57:48.993Z,10.80
2018-12-12T08:00:18.938Z,7.80
2018-12-12T08:02:48.665Z,8.43
2018-12-12T08:05:19.113Z,7.97
2018-12-12T08:07:49.013Z,9.97
2018-12-12T08:10:18.945Z,9.57
2018-12-12T08:12:48.582Z,9.00
2018-12-12T08:15:18.536Z,9.60
2018-12-12T08:17:48.701Z,9.40
2018-12-12T08:20:18.430Z,10.70
2018-12-12T08:22:48.326Z,12.27
2018-12-12T08:25:18.463Z,9.87
2018-12-12T08:27:48.074Z,11.50
2018-12-12T08:30:18.065Z,10.27
2018-12-12T08:32:47.959Z,8.80
2018-12-12T08:35:17.609Z,6.83
2018-12-12T08:37:47.464Z,8.20
2018-12-12T08:40:17.093Z,10.10
2018-12-12T08:42:46.951Z,6.93
2018-12-12T08:45:16.768Z,6.90
2018-12-12T08:47:47.468Z,8.57
2018-12-12T08:50:17.269Z,7.63
2018-12-12T08:52:47.081Z,8.90
2018-12-12T08:55:17.835Z,9.67
2018-12-12T08:57:48.265Z,8.93
2018-12-12T09:00:17.989Z,9.97
2018-12-12T09:02:47.959Z,7.23
2018-12-12T09:05:17.757Z,7.73
2018-12-12T09:07:47.421Z,8.50
2018-12-12T09:10:17.281Z,9.80
2018-12-12T09:12:49.038Z,8.97
2018-12-12T09:15:18.704Z,7.03
2018-12-12T09:17:49.684Z,8.50
2018-12-12T09:20:19.498Z,7.13
2018-12-12T09:22:50.190Z,10.60
2018-12-12T09:25:20.131Z,8.53
2018-12-12T09:27:49.821Z,6.90
2018-12-12T09:30:21.508Z,8.40
2018-12-12T09:32:53.213Z,8.90
2018-12-12T09:35:39.845Z,6.93
2018-12-12T09:38:09.537Z,11.87
2018-12-12T09:40:39.640Z,14.20
2018-12-12T09:43:09.420Z,7.80
2018-12-12T09:45:39.396Z,8.83
2018-12-12T09:48:09.484Z,8.07
2018-12-12T09:50:39.444Z,14.13
2018-12-12T09:53:11.189Z,7.47
2018-12-12T09:55:41.028Z,9.00
2018-12-12T09:58:10.696Z,9.40
2018-12-12T10:00:40.537Z,7.70
2018-12-12T10:03:10.152Z,7.40
2018-12-12T10:05:39.829Z,7.30
2018-12-12T10:08:09.586Z,11.07
2018-12-12T10:10:39.481Z,8.50
2018-12-12T10:13:09.264Z,10.90
2018-12-12T10:15:39.465Z,8.90
2018-12-12T10:18:09.429Z,11.47
2018-12-12T10:20:39.111Z,8.90
2018-12-12T10:23:08.833Z,11.70
2018-12-12T10:25:38.812Z,8.97
2018-12-12T10:28:09.673Z,9.73
2018-12-12T10:30:39.768Z,12.83
2018-12-12T10:33:09.505Z,10.60
2018-12-12T10:35:38.934Z,11.70
2018-12-12T10:38:08.757Z,11.10
2018-12-12T10:40:38.321Z,9.67
2018-12-12T10:43:08.077Z,9.57
2018-12-12T10:45:37.791Z,16.97
2018-12-12T10:48:08.229Z,17.57
2018-12-12T10:50:39.492Z,13.73
2018-12-12T10:53:10.069Z,10.77
2018-12-12T10:55:39.816Z,10.37
2018-12-12T10:58:09.809Z,14.57
2018-12-12T11:00:42.358Z,17.77
2018-12-12T11:03:17.268Z,14.33
2018-12-12T11:05:47.006Z,15.43
2018-12-12T11:08:16.719Z,17.27
2018-12-12T11:10:46.473Z,15.87
2018-12-12T11:13:16.025Z,12.23
2018-12-12T11:15:45.675Z,17.80
2018-12-12T11:18:15.380Z,19.80
2018-12-12T11:20:45.052Z,21.20
2018-12-12T11:23:15.107Z,25.53
2018-12-12T11:25:44.720Z,27.50
2018-12-12T11:28:14.281Z,32.23
2018-12-12T11:30:44.041Z,25.17
2018-12-12T11:33:13.847Z,23.03
2018-12-12T11:35:43.516Z,16.03
2018-12-12T11:38:13.272Z,15.37
2018-12-12T11:40:42.877Z,16.20
2018-12-12T11:43:12.781Z,18.13
2018-12-12T11:45:42.472Z,19.33
2018-12-12T11:48:12.104Z,22.23
2018-12-12T11:50:41.713Z,21.30
2018-12-12T11:53:11.425Z,23.07
2018-12-12T11:55:41.041Z,25.60
2018-12-12T11:58:10.701Z,18.20
2018-12-12T12:00:40.481Z,22.57
2018-12-12T12:03:10.614Z,19.27
2018-12-12T12:05:40.336Z,22.17
2018-12-12T12:08:09.983Z,20.00
2018-12-12T12:10:39.793Z,18.27
2018-12-12T12:13:11.417Z,20.10
2018-12-12T12:15:41.173Z,17.63
2018-12-12T12:18:10.732Z,17.07
2018-12-12T12:20:40.589Z,17.10
2018-12-12T12:23:10.296Z,17.30
2018-12-12T12:25:39.965Z,23.33
2018-12-12T12:28:10.345Z,17.70
2018-12-12T12:30:40.241Z,16.83
2018-12-12T12:33:09.912Z,19.13
2018-12-12T12:35:39.661Z,19.63
2018-12-12T12:38:09.389Z,14.60
2018-12-12T12:40:38.952Z,16.73
2018-12-12T12:43:08.884Z,19.63
2018-12-12T12:45:38.623Z,19.97
2018-12-12T12:48:08.177Z,13.90
2018-12-12T12:50:38.125Z,18.57
2018-12-12T12:53:10.398Z,13.60
2018-12-12T12:55:39.966Z,17.53
2018-12-12T12:58:09.411Z,19.43
2018-12-12T13:00:39.092Z,14.17
2018-12-12T13:03:08.793Z,15.43
2018-12-12T13:05:38.461Z,17.70
2018-12-12T13:08:08.336Z,14.63
2018-12-12T13:10:38.269Z,17.33
2018-12-12T13:13:09.359Z,17.17
2018-12-12T13:15:39.333Z,14.93
2018-12-12T13:18:09.597Z,17.50
2018-12-12T13:20:39.333Z,20.00
2018-12-12T13:23:09.197Z,12.77
2018-12-12T13:25:38.884Z,14.57
2018-12-12T13:28:08.696Z,11.97
2018-12-12T13:30:39.197Z,14.93
2018-12-12T13:33:09.149Z,21.47
2018-12-12T13:35:38.805Z,15.57
2018-12-12T13:38:08.557Z,19.30
2018-12-12T13:40:38.566Z,20.30
2018-12-12T13:43:08.341Z,14.80
2018-12-12T13:45:38.099Z,20.17
2018-12-12T13:48:08.004Z,18.90
2018-12-12T13:50:37.536Z,22.30
2018-12-12T13:53:07.409Z,19.10
2018-12-12T13:55:37.120Z,19.77
2018-12-12T13:58:06.909Z,18.40
2018-12-12T14:00:39.156Z,20.97
2018-12-12T14:03:09.246Z,17.67
2018-12-12T14:05:38.904Z,15.73
2018-12-12T14:08:08.882Z,27.00
2018-12-12T14:10:38.570Z,23.63
2018-12-12T14:13:08.346Z,24.40
2018-12-12T14:15:38.000Z,27.67
2018-12-12T14:18:07.705Z,23.57
2018-12-12T14:20:37.370Z,27.47
2018-12-12T14:23:07.126Z,27.63
2018-12-12T14:25:37.129Z,21.00
2018-12-12T14:28:06.765Z,21.83
2018-12-12T14:30:36.453Z,19.33
2018-12-12T14:33:06.072Z,20.20
2018-12-12T14:35:35.437Z,17.93
2018-12-12T14:38:05.580Z,17.10
2018-12-12T14:40:35.392Z,19.77
2018-12-12T14:43:05.178Z,18.47
2018-12-12T14:45:34.821Z,18.17
2018-12-12T14:48:04.820Z,23.23
2018-12-12T14:50:34.396Z,25.80
2018-12-12T14:53:04.425Z,20.13
2018-12-12T14:55:34.192Z,21.20
2018-12-12T14:58:04.511Z,16.47
2018-12-12T15:00:34.070Z,19.90
2018-12-12T15:03:03.812Z,21.33
2018-12-12T15:05:33.480Z,21.70
2018-12-12T15:08:03.234Z,23.80
2018-12-12T15:10:33.128Z,19.50
2018-12-12T15:13:02.717Z,21.43
2018-12-12T15:15:33.724Z,21.93
2018-12-12T15:18:03.397Z,22.33
2018-12-12T15:20:33.071Z,25.07
2018-12-12T15:23:02.712Z,20.60
2018-12-12T15:25:32.430Z,25.67
2018-12-12T15:28:02.093Z,25.87
2018-12-12T15:30:32.048Z,23.70
2018-12-12T15:33:01.660Z,24.57
2018-12-12T15:35:31.981Z,28.33
2018-12-12T15:38:01.706Z,23.73
2018-12-12T15:40:32.376Z,41.27
2018-12-12T15:43:02.092Z,36.73
2018-12-12T15:45:31.672Z,47.93
2018-12-12T15:48:01.654Z,44.87
2018-12-12T15:50:31.923Z,32.00
2018-12-12T15:53:01.814Z,29.47
2018-12-12T15:55:31.508Z,51.83
2018-12-12T15:58:01.172Z,32.00
2018-12-12T16:00:31.148Z,34.63
2018-12-12T16:03:01.094Z,31.30
2018-12-12T16:05:31.028Z,34.80
2018-12-12T16:08:00.772Z,29.50
2018-12-12T16:10:30.480Z,31.23
2018-12-12T16:13:00.965Z,27.13
2018-12-12T16:15:30.620Z,32.20
2018-12-12T16:18:00.336Z,32.50
2018-12-12T16:20:29.991Z,27.60
2018-12-12T16:22:59.646Z,24.87
2018-12-12T16:25:29.357Z,28.00
2018-12-12T16:27:59.121Z,38.97
2018-12-12T16:30:28.601Z,29.53
2018-12-12T16:33:00.156Z,32.50
2018-12-12T16:35:29.894Z,30.30
2018-12-12T16:38:00.003Z,27.60
2018-12-12T16:40:29.616Z,24.50
2018-12-12T16:42:59.372Z,30.23
2018-12-12T16:45:31.138Z,31.33
2018-12-12T16:48:00.706Z,32.27
2018-12-12T16:50:30.348Z,37.50
2018-12-12T16:52:59.824Z,29.40
2018-12-12T16:55:29.188Z,52.03
2018-12-12T16:57:58.637Z,44.03
2018-12-12T17:00:28.142Z,37.23
2018-12-12T17:02:57.520Z,35.57
2018-12-12T17:05:28.101Z,29.67
2018-12-12T17:07:57.793Z,27.90
2018-12-12T17:10:27.196Z,26.70
2018-12-12T17:12:56.571Z,27.70
2018-12-12T17:15:26.013Z,26.70
2018-12-12T17:17:56.143Z,28.23
2018-12-12T17:20:25.647Z,28.47
2018-12-12T17:22:55.209Z,38.77
2018-12-12T17:25:24.574Z,35.70
2018-12-12T17:27:53.984Z,34.23
2018-12-12T17:30:23.756Z,42.73
2018-12-12T17:32:53.220Z,28.80
2018-12-12T17:35:22.601Z,30.47
2018-12-12T17:37:52.045Z,27.30
2018-12-12T17:40:21.433Z,35.80
2018-12-12T17:42:51.119Z,32.90
2018-12-12T17:45:21.077Z,37.17
2018-12-12T17:47:50.830Z,33.33
2018-12-12T17:50:20.719Z,31.53
2018-12-12T17:52:50.573Z,25.67
2018-12-12T17:55:20.404Z,41.47
2018-12-12T17:57:50.158Z,39.33
2018-12-12T18:00:19.804Z,23.80
2018-12-12T18:02:51.377Z,28.70
2018-12-12T18:05:26.744Z,26.43
2018-12-12T18:07:56.636Z,28.90
2018-12-12T18:10:26.077Z,27.80
2018-12-12T18:12:55.497Z,32.80
2018-12-12T18:15:26.952Z,25.97
2018-12-12T18:17:58.390Z,25.37
2018-12-12T18:20:28.597Z,38.37
2018-12-12T18:22:58.245Z,32.07
2018-12-12T18:25:29.801Z,41.90
2018-12-12T18:27:59.286Z,40.50
2018-12-12T18:30:29.286Z,36.73
2018-12-12T18:33:01.050Z,24.97
2018-12-12T18:35:48.429Z,35.57
2018-12-12T18:38:18.376Z,28.67
2018-12-12T18:40:47.944Z,36.03
2018-12-12T18:43:19.945Z,27.57
2018-12-12T18:45:49.627Z,35.20
2018-12-12T18:48:19.485Z,31.53
2018-12-12T18:50:52.174Z,26.23
2018-12-12T18:53:23.769Z,33.87
2018-12-12T18:55:55.480Z,29.33
2018-12-12T18:58:25.237Z,35.37
2018-12-12T19:00:54.903Z,30.43
2018-12-12T19:03:24.888Z,39.67
2018-12-12T19:05:54.472Z,24.97
2018-12-12T19:08:24.224Z,32.17
2018-12-12T19:10:53.745Z,37.93
2018-12-12T19:13:23.125Z,32.20
2018-12-12T19:15:52.565Z,27.33
2018-12-12T19:18:22.089Z,35.83
2018-12-12T19:20:51.462Z,36.37
2018-12-12T19:23:21.507Z,31.33
2018-12-12T19:25:51.042Z,30.33
2018-12-12T19:28:20.795Z,26.37
2018-12-12T19:30:50.458Z,32.70
2018-12-12T19:33:19.950Z,42.70
2018-12-12T19:35:49.329Z,32.20
2018-12-12T19:38:18.708Z,36.23
2018-12-12T19:40:48.125Z,35.73
2018-12-12T19:43:17.509Z,30.40
2018-12-12T19:45:46.905Z,33.23
2018-12-12T19:48:16.501Z,44.63
2018-12-12T19:50:44.749Z,34.47
2018-12-12T19:53:13.318Z,38.03
2018-12-12T19:55:42.613Z,41.33
2018-12-12T19:58:11.041Z,34.83
2018-12-12T20:00:39.749Z,40.60
2018-12-12T20:03:08.538Z,35.63
2018-12-12T20:05:41.386Z,43.90
2018-12-12T20:08:07.680Z,40.07
2018-12-12T20:10:37.486Z,29.30
2018-12-12T20:13:06.209Z,24.90
2018-12-12T20:15:40.034Z,32.10
2018-12-12T20:18:08.625Z,31.17
2018-12-12T20:20:37.925Z,44.00
2018-12-12T20:23:06.957Z,28.27
2018-12-12T20:25:36.005Z,26.87
2018-12-12T20:28:04.185Z,25.70
2018-12-12T20:30:35.459Z,25.67
2018-12-12T20:33:03.853Z,27.07
2018-12-12T20:35:31.928Z,35.10
2018-12-12T20:38:00.227Z,40.63
2018-12-12T20:40:28.560Z,42.53
2018-12-12T20:42:56.850Z,29.70
2018-12-12T20:45:25.036Z,19.67
2018-12-12T20:47:53.123Z,27.03
2018-12-12T20:50:21.198Z,31.20
2018-12-12T20:52:49.349Z,23.20
2018-12-12T20:55:17.669Z,20.53
2018-12-12T20:57:46.269Z,25.90
2018-12-12T21:00:14.546Z,24.70
2018-12-12T21:02:42.949Z,34.13
2018-12-12T21:05:11.038Z,22.37
2018-12-12T21:07:40.230Z,24.30
2018-12-12T21:10:09.016Z,30.40
2018-12-12T21:12:37.869Z,38.73
2018-12-12T21:15:08.705Z,25.17
2018-12-12T21:17:36.816Z,18.70
2018-12-12T21:20:07.329Z,23.97
2018-12-12T21:22:36.121Z,17.93
2018-12-12T21:25:04.884Z,37.03
2018-12-12T21:27:33.259Z,21.17
2018-12-12T21:30:01.855Z,20.37
2018-12-12T21:32:30.636Z,37.33
2018-12-12T21:34:59.917Z,24.73
2018-12-12T21:37:28.964Z,24.90
2018-12-12T21:39:57.608Z,23.10
2018-12-12T21:42:25.733Z,20.93
2018-12-12T21:44:53.809Z,24.37
2018-12-12T21:47:21.869Z,20.50
2018-12-12T21:49:49.913Z,19.80
2018-12-12T21:52:18.024Z,20.40
2018-12-12T21:54:46.082Z,21.50
2018-12-12T21:57:14.145Z,19.07
2018-12-12T21:59:42.353Z,18.20
2018-12-12T22:02:10.612Z,17.27
2018-12-12T22:04:38.679Z,17.77
2018-12-12T22:07:06.865Z,24.20
2018-12-12T22:09:34.958Z,25.27
2018-12-12T22:12:03.017Z,19.30
2018-12-12T22:14:31.124Z,18.67
2018-12-12T22:16:59.241Z,18.90
2018-12-12T22:19:27.396Z,17.23
2018-12-12T22:21:55.513Z,17.67
2018-12-12T22:24:23.557Z,20.67
2018-12-12T22:26:51.604Z,16.77
2018-12-12T22:29:19.820Z,14.73
2018-12-12T22:31:47.911Z,16.30
2018-12-12T22:34:16.099Z,14.80
2018-12-12T22:36:44.324Z,14.93
2018-12-12T22:39:12.760Z,13.03
2018-12-12T22:41:41.340Z,16.90
2018-12-12T22:44:09.864Z,18.93
2018-12-12T22:46:38.412Z,14.63
2018-12-12T22:49:06.481Z,14.70
2018-12-12T22:51:34.872Z,13.13
2018-12-12T22:54:03.762Z,14.90
2018-12-12T22:56:31.820Z,15.63
2018-12-12T22:58:59.999Z,16.10
2018-12-12T23:01:28.085Z,14.57
2018-12-12T23:03:56.465Z,20.63
2018-12-12T23:06:25.252Z,16.40
2018-12-12T23:08:54.533Z,15.73
2018-12-12T23:11:23.322Z,15.73
2018-12-12T23:13:51.553Z,16.50
2018-12-12T23:16:20.849Z,17.00
2018-12-12T23:18:48.905Z,15.13
2018-12-12T23:21:16.992Z,15.27
2018-12-12T23:23:45.072Z,16.57
2018-12-12T23:26:13.177Z,17.97
2018-12-12T23:28:41.628Z,17.13
2018-12-12T23:31:09.701Z,15.50
2018-12-12T23:33:37.744Z,14.47
2018-12-12T23:36:05.860Z,15.83
2018-12-12T23:38:33.965Z,16.07
2018-12-12T23:41:02.528Z,16.60
2018-12-12T23:43:30.841Z,16.00
2018-12-12T23:45:59.284Z,15.97
2018-12-12T23:48:27.849Z,16.43
2018-12-12T23:50:56.288Z,14.63
2018-12-12T23:53:25.205Z,15.73
2018-12-12T23:55:53.720Z,17.40
2018-12-12T23:58:22.362Z,19.67
